createdAt,value
2019-03-23T00:00:26.515Z,55.5
2019-03-23T00:01:26.504Z,55.41
2019-03-23T00:02:26.468Z,55.5
2019-03-23T00:03:26.447Z,55.98
2019-03-23T00:04:27.874Z,55.41
2019-03-23T00:05:26.400Z,55.31
2019-03-23T00:06:33.322Z,55.02
2019-03-23T00:07:26.347Z,55.21
2019-03-23T00:08:26.332Z,55.31
2019-03-23T00:09:26.303Z,55.41
2019-03-23T00:10:26.285Z,55.21
2019-03-23T00:11:26.257Z,55.31
2019-03-23T00:12:26.334Z,54.74
2019-03-23T00:13:26.207Z,54.67
2019-03-23T00:14:26.188Z,54.57
2019-03-23T00:15:26.163Z,54.86
2019-03-23T00:16:26.137Z,54.38
2019-03-23T00:17:26.118Z,54.29
2019-03-23T00:18:26.091Z,54.48
2019-03-23T00:19:26.101Z,54.57
2019-03-23T00:20:26.081Z,54.38
2019-03-23T00:21:26.019Z,54.19
2019-03-23T00:22:25.997Z,54.38
2019-03-23T00:23:25.981Z,54.48
2019-03-23T00:24:25.950Z,53.81
2019-03-23T00:25:25.922Z,54.1
2019-03-23T00:26:25.899Z,54.1
2019-03-23T00:27:25.876Z,53.72
2019-03-23T00:28:25.622Z,53.81
2019-03-23T00:29:25.830Z,54.1
2019-03-23T00:30:25.813Z,54.48
2019-03-23T00:31:25.788Z,54.19
2019-03-23T00:32:25.756Z,54.19
2019-03-23T00:33:25.765Z,54.19
2019-03-23T00:34:25.709Z,54.77
2019-03-23T00:35:25.684Z,54.45
2019-03-23T00:36:25.665Z,54.26
2019-03-23T00:37:25.638Z,54.36
2019-03-23T00:38:26.820Z,54.36
2019-03-23T00:39:25.590Z,54.26
2019-03-23T00:40:25.574Z,54.45
2019-03-23T00:41:25.547Z,54.26
2019-03-23T00:42:25.526Z,54.45
2019-03-23T00:43:25.500Z,54.26
2019-03-23T00:44:25.573Z,54.45
2019-03-23T00:45:25.215Z,54.74
2019-03-23T00:46:25.424Z,54.55
2019-03-23T00:47:25.401Z,54.55
2019-03-23T00:48:25.375Z,54.55
2019-03-23T00:49:25.367Z,54.83
2019-03-23T00:50:25.331Z,55.12
2019-03-23T00:51:25.305Z,55.5
2019-03-23T00:52:25.283Z,55.12
2019-03-23T00:53:25.257Z,55.31
2019-03-23T00:54:25.235Z,55.21
2019-03-23T00:55:25.210Z,55.12
2019-03-23T00:56:25.190Z,55.21
2019-03-23T00:57:25.175Z,55.5
2019-03-23T00:58:25.138Z,54.93
2019-03-23T00:59:25.118Z,55.31
2019-03-23T01:00:25.095Z,55.41
2019-03-23T01:01:25.071Z,55.98
2019-03-23T01:02:25.046Z,55.88
2019-03-23T01:03:25.024Z,55.79
2019-03-23T01:04:24.999Z,56.17
2019-03-23T01:05:24.977Z,56.17
2019-03-23T01:06:24.948Z,56.26
2019-03-23T01:07:24.934Z,56.55
2019-03-23T01:08:24.909Z,56.84
2019-03-23T01:09:24.879Z,56.93
2019-03-23T01:10:24.853Z,57.41
2019-03-23T01:11:24.835Z,57.6
2019-03-23T01:12:24.816Z,57.5
2019-03-23T01:13:24.785Z,57.79
2019-03-23T01:14:24.756Z,58.26
2019-03-23T01:15:24.733Z,58.55
2019-03-23T01:16:24.709Z,59.31
2019-03-23T01:17:24.686Z,59.7
2019-03-23T01:18:24.661Z,59.22
2019-03-23T01:19:24.637Z,60.08
2019-03-23T01:20:24.618Z,59.79
2019-03-23T01:21:24.587Z,59.79
2019-03-23T01:22:24.563Z,60.08
2019-03-23T01:23:24.538Z,60.24
2019-03-23T01:24:24.529Z,60.24
2019-03-23T01:25:24.489Z,60.52
2019-03-23T01:26:24.471Z,60.72
2019-03-23T01:27:24.447Z,60.72
2019-03-23T01:28:24.418Z,61.38
2019-03-23T01:29:24.395Z,61.38
2019-03-23T01:30:24.483Z,61.1
2019-03-23T01:31:24.352Z,61.76
2019-03-23T01:32:24.327Z,62.24
2019-03-23T01:33:24.302Z,61.86
2019-03-23T01:34:24.314Z,61.86
2019-03-23T01:35:24.251Z,62.24
2019-03-23T01:36:24.229Z,62.81
2019-03-23T01:37:24.201Z,63
2019-03-23T01:38:24.183Z,63.1
2019-03-23T01:39:24.154Z,62.72
2019-03-23T01:40:24.132Z,63
2019-03-23T01:41:24.105Z,63.2
2019-03-23T01:42:24.084Z,63.39
2019-03-23T01:43:24.066Z,63.48
2019-03-23T01:44:24.032Z,63.29
2019-03-23T01:45:24.011Z,63.48
2019-03-23T01:46:23.986Z,63
2019-03-23T01:47:23.959Z,63.48
2019-03-23T01:48:23.953Z,63.67
2019-03-23T01:49:23.911Z,64.24
2019-03-23T01:50:23.889Z,63.76
2019-03-23T01:51:23.864Z,63.57
2019-03-23T01:52:23.838Z,63.86
2019-03-23T01:53:23.812Z,64.15
2019-03-23T01:54:23.837Z,64.21
2019-03-23T01:55:23.768Z,64.31
2019-03-23T01:56:23.743Z,64.97
2019-03-23T01:57:23.718Z,65.64
2019-03-23T01:58:23.691Z,65.83
2019-03-23T01:59:23.673Z,65.83
2019-03-23T02:00:23.656Z,66.88
2019-03-23T02:01:23.618Z,66.5
2019-03-23T02:02:23.602Z,66.78
2019-03-23T02:03:23.570Z,66.97
2019-03-23T02:04:23.544Z,66.97
2019-03-23T02:05:23.525Z,67.45
2019-03-23T02:06:23.498Z,67.83
2019-03-23T02:07:23.472Z,67.7
2019-03-23T02:08:23.546Z,68.37
2019-03-23T02:09:23.424Z,68.75
2019-03-23T02:10:23.398Z,68.75
2019-03-23T02:11:23.380Z,68.94
2019-03-23T02:12:23.355Z,69.23
2019-03-23T02:13:23.349Z,69.89
2019-03-23T02:14:23.301Z,70.08
2019-03-23T02:15:23.280Z,70.65
2019-03-23T02:16:23.290Z,71.13
2019-03-23T02:17:23.224Z,71.13
2019-03-23T02:18:23.200Z,71.86
2019-03-23T02:19:23.173Z,72.08
2019-03-23T02:20:23.148Z,72.14
2019-03-23T02:21:23.126Z,73.1
2019-03-23T02:22:22.861Z,73.85
2019-03-23T02:23:23.075Z,73.95
2019-03-23T02:24:23.048Z,74.9
2019-03-23T02:25:23.027Z,74.99
2019-03-23T02:26:23.004Z,75.28
2019-03-23T02:27:22.736Z,75.67
2019-03-23T02:28:22.946Z,75.95
2019-03-23T02:29:22.923Z,76.52
2019-03-23T02:30:22.913Z,76.23
2019-03-23T02:31:22.876Z,76.9
2019-03-23T02:32:22.884Z,77
2019-03-23T02:33:22.821Z,77.37
2019-03-23T02:34:22.813Z,77.85
2019-03-23T02:35:22.776Z,78
2019-03-23T02:36:22.751Z,78.57
2019-03-23T02:37:30.134Z,78.96
2019-03-23T02:38:22.696Z,78.9
2019-03-23T02:39:22.681Z,78.86
2019-03-23T02:40:22.649Z,79.52
2019-03-23T02:41:22.634Z,80
2019-03-23T02:42:22.601Z,80.1
2019-03-23T02:43:22.566Z,80
2019-03-23T02:44:22.548Z,80.66
2019-03-23T02:45:22.523Z,80.86
2019-03-23T02:46:22.494Z,81.14
2019-03-23T02:47:22.476Z,81.71
2019-03-23T02:48:22.447Z,81.71
2019-03-23T02:49:22.415Z,82.28
2019-03-23T02:50:22.390Z,82.09
2019-03-23T02:51:22.368Z,82.28
2019-03-23T02:52:22.338Z,82.09
2019-03-23T02:53:22.307Z,82.28
2019-03-23T02:54:22.285Z,82.48
2019-03-23T02:55:22.254Z,83.04
2019-03-23T02:56:22.263Z,83.52
2019-03-23T02:57:22.206Z,84.28
2019-03-23T02:58:22.182Z,84.43
2019-03-23T02:59:22.154Z,84.52
2019-03-23T03:00:22.129Z,84.91
2019-03-23T03:01:22.103Z,85.1
2019-03-23T03:02:22.081Z,85.95
2019-03-23T03:03:22.050Z,86.71
2019-03-23T03:04:22.032Z,87.09
2019-03-23T03:05:22.003Z,87.47
2019-03-23T03:06:21.980Z,87.95
2019-03-23T03:07:21.958Z,88.52
2019-03-23T03:08:21.915Z,88.33
2019-03-23T03:09:21.900Z,89.04
2019-03-23T03:10:21.874Z,89.71
2019-03-23T03:11:21.841Z,89.9
2019-03-23T03:12:21.814Z,90.28
2019-03-23T03:13:21.795Z,90.28
2019-03-23T03:14:21.760Z,90.37
2019-03-23T03:15:21.790Z,90.75
2019-03-23T03:16:21.715Z,91.13
2019-03-23T03:17:21.683Z,91.8
2019-03-23T03:18:21.672Z,91.89
2019-03-23T03:19:21.628Z,92.27
2019-03-23T03:20:21.602Z,92.56
2019-03-23T03:21:21.575Z,92.75
2019-03-23T03:22:21.548Z,93.89
2019-03-23T03:23:21.527Z,93.7
2019-03-23T03:24:21.500Z,94.13
2019-03-23T03:25:21.467Z,94.89
2019-03-23T03:26:21.441Z,95.65
2019-03-23T03:27:21.426Z,95.65
2019-03-23T03:28:21.393Z,95.65
2019-03-23T03:29:21.367Z,96.03
2019-03-23T03:30:21.344Z,95.84
2019-03-23T03:31:21.321Z,96.5
2019-03-23T03:32:21.328Z,96.6
2019-03-23T03:33:21.266Z,96.88
2019-03-23T03:34:21.271Z,97.17
2019-03-23T03:35:21.207Z,97.64
2019-03-23T03:36:21.187Z,98.54
2019-03-23T03:37:21.165Z,98.54
2019-03-23T03:38:21.128Z,98.92
2019-03-23T03:39:21.152Z,98.16
2019-03-23T03:40:21.070Z,98.45
2019-03-23T03:41:21.037Z,99.11
2019-03-23T03:42:21.018Z,99.58
2019-03-23T03:43:21.112Z,99.3
2019-03-23T03:44:20.735Z,99.21
2019-03-23T03:45:20.933Z,99.02
2019-03-23T03:46:20.904Z,98.92
2019-03-23T03:47:20.879Z,99.4
2019-03-23T03:48:20.850Z,99.58
2019-03-23T03:49:20.599Z,99.4
2019-03-23T03:50:20.844Z,99.3
2019-03-23T03:51:20.771Z,99.02
2019-03-23T03:52:20.742Z,99.77
2019-03-23T03:53:20.724Z,99.77
2019-03-23T03:54:20.724Z,99.87
2019-03-23T03:55:20.663Z,99.97
2019-03-23T03:56:20.633Z,99.77
2019-03-23T03:57:20.612Z,99.77
2019-03-23T03:58:20.601Z,99.99
2019-03-23T03:59:20.554Z,99.99
2019-03-23T04:00:20.538Z,99.99
2019-03-23T04:01:20.506Z,99.99
2019-03-23T04:02:20.472Z,99.99
2019-03-23T04:03:20.445Z,99.99
2019-03-23T04:04:20.417Z,99.99
2019-03-23T04:05:20.389Z,99.99
2019-03-23T04:06:20.364Z,99.99
2019-03-23T04:07:20.334Z,99.99
2019-03-23T04:08:20.313Z,99.99
2019-03-23T04:09:20.281Z,99.99
2019-03-23T04:10:20.254Z,99.99
2019-03-23T04:11:20.237Z,99.99
2019-03-23T04:12:19.973Z,99.99
2019-03-23T04:13:20.170Z,99.99
2019-03-23T04:14:20.140Z,99.99
2019-03-23T04:15:20.122Z,99.99
2019-03-23T04:16:20.083Z,99.99
2019-03-23T04:17:20.074Z,99.99
2019-03-23T04:18:20.035Z,99.99
2019-03-23T04:19:20.006Z,99.99
2019-03-23T04:20:19.985Z,99.99
2019-03-23T04:21:19.960Z,99.99
2019-03-23T04:22:19.925Z,99.99
2019-03-23T04:23:19.898Z,99.99
2019-03-23T04:24:19.870Z,99.99
2019-03-23T04:25:19.865Z,99.99
2019-03-23T04:26:19.822Z,99.99
2019-03-23T04:27:19.791Z,99.99
2019-03-23T04:28:19.764Z,99.99
2019-03-23T04:29:19.737Z,99.99
2019-03-23T04:30:19.709Z,99.99
2019-03-23T04:31:19.700Z,99.99
2019-03-23T04:32:19.652Z,99.99
2019-03-23T04:33:19.630Z,99.99
2019-03-23T04:34:19.616Z,99.99
2019-03-23T04:35:19.574Z,99.99
2019-03-23T04:36:19.545Z,99.99
2019-03-23T04:37:19.513Z,99.99
2019-03-23T04:38:25.017Z,99.99
2019-03-23T04:39:19.516Z,99.99
2019-03-23T04:40:19.432Z,99.99
2019-03-23T04:41:19.404Z,99.99
2019-03-23T04:42:19.380Z,99.99
2019-03-23T04:43:19.350Z,99.99
2019-03-23T04:44:19.322Z,99.99
2019-03-23T04:45:19.297Z,99.99
2019-03-23T04:46:19.267Z,99.99
2019-03-23T04:47:19.002Z,99.99
2019-03-23T04:48:19.214Z,99.99
2019-03-23T04:49:19.186Z,99.99
2019-03-23T04:50:19.156Z,99.99
2019-03-23T04:51:19.131Z,99.99
2019-03-23T04:52:18.865Z,99.99
2019-03-23T04:53:19.075Z,99.99
2019-03-23T04:54:19.053Z,99.99
2019-03-23T04:55:19.029Z,99.99
2019-03-23T04:56:18.996Z,99.99
2019-03-23T04:57:18.730Z,99.99
2019-03-23T04:58:18.941Z,99.99
2019-03-23T04:59:18.916Z,99.99
2019-03-23T05:00:18.891Z,99.99
2019-03-23T05:01:18.862Z,99.99
2019-03-23T05:02:18.835Z,99.99
2019-03-23T05:03:18.811Z,99.99
2019-03-23T05:04:18.786Z,99.99
2019-03-23T05:05:18.750Z,99.99
2019-03-23T05:06:18.726Z,99.99
2019-03-23T05:07:18.697Z,99.99
2019-03-23T05:08:18.678Z,99.99
2019-03-23T05:09:18.683Z,99.99
2019-03-23T05:10:18.612Z,99.99
2019-03-23T05:11:18.605Z,99.99
2019-03-23T05:12:18.561Z,99.99
2019-03-23T05:13:18.531Z,99.99
2019-03-23T05:14:18.512Z,99.99
2019-03-23T05:15:18.483Z,99.99
2019-03-23T05:16:18.449Z,99.99
2019-03-23T05:17:18.421Z,99.99
2019-03-23T05:18:18.393Z,99.99
2019-03-23T05:19:18.370Z,99.99
2019-03-23T05:20:18.340Z,99.99
2019-03-23T05:21:18.315Z,99.99
2019-03-23T05:22:18.287Z,99.99
2019-03-23T05:23:18.257Z,99.99
2019-03-23T05:24:18.232Z,99.99
2019-03-23T05:25:18.209Z,99.99
2019-03-23T05:26:17.949Z,99.99
2019-03-23T05:27:18.150Z,99.99
2019-03-23T05:28:18.123Z,99.99
2019-03-23T05:29:18.095Z,99.99
2019-03-23T05:30:18.122Z,99.99
2019-03-23T05:31:18.052Z,99.99
2019-03-23T05:32:18.016Z,99.99
2019-03-23T05:33:17.991Z,99.99
2019-03-23T05:34:17.957Z,99.99
2019-03-23T05:35:17.931Z,99.99
2019-03-23T05:36:17.904Z,99.99
2019-03-23T05:37:17.879Z,99.99
2019-03-23T05:38:17.850Z,99.99
2019-03-23T05:39:17.825Z,99.99
2019-03-23T05:40:17.796Z,99.99
2019-03-23T05:41:17.766Z,99.99
2019-03-23T05:42:17.742Z,99.99
2019-03-23T05:43:17.717Z,99.99
2019-03-23T05:44:17.686Z,99.99
2019-03-23T05:45:17.659Z,99.99
2019-03-23T05:46:17.635Z,99.99
2019-03-23T05:47:17.627Z,99.99
2019-03-23T05:48:17.582Z,99.99
2019-03-23T05:49:17.560Z,99.99
2019-03-23T05:50:17.524Z,99.99
2019-03-23T05:51:17.497Z,99.99
2019-03-23T05:52:17.467Z,99.99
2019-03-23T05:53:17.438Z,99.99
2019-03-23T05:54:17.416Z,99.99
2019-03-23T05:55:17.386Z,99.99
2019-03-23T05:56:17.363Z,99.99
2019-03-23T05:57:19.739Z,99.99
2019-03-23T05:58:17.311Z,99.99
2019-03-23T05:59:17.281Z,99.99
2019-03-23T06:00:17.261Z,99.99
2019-03-23T06:01:17.228Z,99.99
2019-03-23T06:02:17.209Z,99.99
2019-03-23T06:03:17.173Z,99.99
2019-03-23T06:04:17.146Z,99.99
2019-03-23T06:05:17.119Z,99.99
2019-03-23T06:06:17.088Z,99.99
2019-03-23T06:07:17.062Z,99.99
2019-03-23T06:08:17.037Z,99.99
2019-03-23T06:09:17.010Z,99.99
2019-03-23T06:10:16.992Z,99.99
2019-03-23T06:11:16.956Z,99.99
2019-03-23T06:12:17.743Z,99.99
2019-03-23T06:13:16.900Z,99.99
2019-03-23T06:14:16.875Z,99.99
2019-03-23T06:15:16.848Z,99.99
2019-03-23T06:16:17.896Z,99.99
2019-03-23T06:17:16.793Z,99.99
2019-03-23T06:18:16.768Z,99.99
2019-03-23T06:19:16.742Z,99.99
2019-03-23T06:20:16.718Z,99.99
2019-03-23T06:21:16.684Z,99.99
2019-03-23T06:22:16.656Z,99.99
2019-03-23T06:23:16.631Z,99.99
2019-03-23T06:24:16.609Z,99.99
2019-03-23T06:25:16.583Z,99.99
2019-03-23T06:26:16.551Z,99.99
2019-03-23T06:27:16.524Z,99.99
2019-03-23T06:28:16.494Z,99.99
2019-03-23T06:29:16.469Z,99.99
2019-03-23T06:30:16.440Z,99.99
2019-03-23T06:31:16.428Z,99.99
2019-03-23T06:32:16.389Z,99.99
2019-03-23T06:33:16.362Z,99.99
2019-03-23T06:34:16.335Z,99.99
2019-03-23T06:35:16.308Z,99.99
2019-03-23T06:36:16.285Z,99.99
2019-03-23T06:37:16.260Z,99.99
2019-03-23T06:38:18.601Z,99.99
2019-03-23T06:39:16.198Z,99.99
2019-03-23T06:40:16.171Z,99.99
2019-03-23T06:41:16.144Z,99.99
2019-03-23T06:42:16.117Z,99.99
2019-03-23T06:43:16.088Z,99.99
2019-03-23T06:44:18.270Z,99.99
2019-03-23T06:45:16.039Z,99.99
2019-03-23T06:46:16.013Z,99.99
2019-03-23T06:47:15.984Z,99.99
2019-03-23T06:48:15.955Z,99.99
2019-03-23T06:49:15.933Z,99.99
2019-03-23T06:50:15.903Z,99.99
2019-03-23T06:51:15.877Z,99.99
2019-03-23T06:52:15.846Z,99.99
2019-03-23T06:53:15.823Z,99.99
2019-03-23T06:54:15.794Z,99.99
2019-03-23T06:55:15.773Z,99.99
2019-03-23T06:56:15.744Z,99.99
2019-03-23T06:57:15.715Z,99.99
2019-03-23T06:58:15.692Z,99.99
2019-03-23T06:59:15.667Z,99.99
2019-03-23T07:00:15.640Z,99.99
2019-03-23T07:01:15.609Z,99.99
2019-03-23T07:02:16.231Z,99.99
2019-03-23T07:03:15.554Z,99.99
2019-03-23T07:04:15.527Z,99.99
2019-03-23T07:05:16.706Z,99.99
2019-03-23T07:06:15.475Z,99.99
2019-03-23T07:07:15.450Z,99.99
2019-03-23T07:08:15.421Z,99.99
2019-03-23T07:09:18.876Z,99.92
2019-03-23T07:10:15.382Z,99.99
2019-03-23T07:11:15.341Z,99.92
2019-03-23T07:12:15.324Z,99.78
2019-03-23T07:13:15.292Z,99.99
2019-03-23T07:14:15.271Z,99.97
2019-03-23T07:15:22.038Z,98.93
2019-03-23T07:16:15.210Z,99.11
2019-03-23T07:17:15.187Z,99.11
2019-03-23T07:18:15.159Z,98.93
2019-03-23T07:19:15.142Z,99.02
2019-03-23T07:20:15.107Z,98.64
2019-03-23T07:21:15.083Z,98.64
2019-03-23T07:22:15.052Z,98.55
2019-03-23T07:23:15.030Z,98.74
2019-03-23T07:24:15.006Z,98.74
2019-03-23T07:25:14.986Z,98.26
2019-03-23T07:26:14.948Z,98.36
2019-03-23T07:27:14.926Z,97.69
2019-03-23T07:28:14.902Z,97.69
2019-03-23T07:29:14.873Z,97.78
2019-03-23T07:30:14.840Z,97.88
2019-03-23T07:31:14.814Z,98.07
2019-03-23T07:32:14.790Z,97.88
2019-03-23T07:33:14.762Z,97.78
2019-03-23T07:34:14.744Z,97.69
2019-03-23T07:35:14.779Z,98.07
2019-03-23T07:36:14.684Z,97.78
2019-03-23T07:37:14.673Z,97.78
2019-03-23T07:38:14.630Z,98.07
2019-03-23T07:39:14.607Z,97.5
2019-03-23T07:40:14.589Z,97.78
2019-03-23T07:41:14.556Z,97.5
2019-03-23T07:42:14.527Z,97.03
2019-03-23T07:43:14.501Z,97.41
2019-03-23T07:44:14.477Z,97.03
2019-03-23T07:45:14.449Z,97.12
2019-03-23T07:46:14.421Z,96.84
2019-03-23T07:47:14.401Z,97.31
2019-03-23T07:48:15.573Z,96.93
2019-03-23T07:49:14.343Z,96.93
2019-03-23T07:50:14.319Z,97.12
2019-03-23T07:51:14.294Z,97.03
2019-03-23T07:52:14.265Z,96.65
2019-03-23T07:53:14.240Z,96.65
2019-03-23T07:54:14.256Z,96.55
2019-03-23T07:55:14.190Z,96.45
2019-03-23T07:56:14.161Z,96.45
2019-03-23T07:57:14.148Z,96.45
2019-03-23T07:58:14.111Z,96.45
2019-03-23T07:59:14.080Z,96.65
2019-03-23T08:00:14.054Z,96.74
2019-03-23T08:01:14.031Z,96.65
2019-03-23T08:02:14.004Z,96.36
2019-03-23T08:03:13.982Z,96.17
2019-03-23T08:04:13.954Z,96.26
2019-03-23T08:05:13.928Z,95.41
2019-03-23T08:06:13.904Z,95.7
2019-03-23T08:07:13.875Z,95.51
2019-03-23T08:08:13.611Z,95.51
2019-03-23T08:09:23.600Z,95.51
2019-03-23T08:10:13.799Z,95.89
2019-03-23T08:11:13.773Z,95.32
2019-03-23T08:12:13.748Z,95.22
2019-03-23T08:13:13.807Z,94.89
2019-03-23T08:14:13.696Z,95.08
2019-03-23T08:15:13.687Z,94.7
2019-03-23T08:16:13.646Z,94.32
2019-03-23T08:17:13.623Z,94.7
2019-03-23T08:18:13.596Z,94.13
2019-03-23T08:19:13.571Z,94.22
2019-03-23T08:20:13.541Z,94.42
2019-03-23T08:21:13.513Z,93.94
2019-03-23T08:22:13.713Z,93.84
2019-03-23T08:23:13.464Z,93.37
2019-03-23T08:24:13.440Z,92.99
2019-03-23T08:25:13.415Z,93.27
2019-03-23T08:26:13.387Z,93.08
2019-03-23T08:27:13.361Z,92.51
2019-03-23T08:28:13.337Z,92.32
2019-03-23T08:29:13.315Z,92.22
2019-03-23T08:30:13.291Z,92.32
2019-03-23T08:31:13.263Z,92.32
2019-03-23T08:32:13.239Z,91.85
2019-03-23T08:33:13.213Z,91.85
2019-03-23T08:34:13.190Z,91.75
2019-03-23T08:35:13.172Z,91.37
2019-03-23T08:36:13.137Z,91.42
2019-03-23T08:37:13.151Z,90.94
2019-03-23T08:38:13.104Z,90.94
2019-03-23T08:39:13.062Z,90.37
2019-03-23T08:40:13.038Z,90.28
2019-03-23T08:41:13.015Z,90.37
2019-03-23T08:42:12.990Z,90.37
2019-03-23T08:43:12.962Z,89.7
2019-03-23T08:44:12.940Z,89.8
2019-03-23T08:45:12.919Z,89.7
2019-03-23T08:46:12.892Z,89.32
2019-03-23T08:47:12.865Z,89.32
2019-03-23T08:48:12.845Z,89.51
2019-03-23T08:49:12.819Z,89.42
2019-03-23T08:50:13.005Z,89.14
2019-03-23T08:51:12.930Z,88.94
2019-03-23T08:52:12.746Z,89.04
2019-03-23T08:53:12.713Z,88.85
2019-03-23T08:54:12.692Z,88.94
2019-03-23T08:55:12.667Z,88.94
2019-03-23T08:56:12.641Z,88.94
2019-03-23T08:57:12.619Z,89.04
2019-03-23T08:58:12.594Z,89.04
2019-03-23T08:59:12.595Z,88.94
2019-03-23T09:00:12.545Z,88.75
2019-03-23T09:01:12.521Z,88.56
2019-03-23T09:02:12.498Z,88.75
2019-03-23T09:03:12.469Z,88.85
2019-03-23T09:04:12.447Z,88.37
2019-03-23T09:05:12.426Z,88.37
2019-03-23T09:06:12.401Z,87.99
2019-03-23T09:07:12.378Z,87.99
2019-03-23T09:08:12.350Z,87.42
2019-03-23T09:09:12.324Z,87.37
2019-03-23T09:10:12.300Z,86.61
2019-03-23T09:11:22.597Z,86.61
2019-03-23T09:12:12.256Z,86.7
2019-03-23T09:13:12.228Z,86.04
2019-03-23T09:14:12.203Z,86.22
2019-03-23T09:15:12.185Z,85.37
2019-03-23T09:16:12.153Z,85.18
2019-03-23T09:17:12.141Z,85.08
2019-03-23T09:18:12.106Z,85.18
2019-03-23T09:19:12.083Z,84.7
2019-03-23T09:20:12.059Z,84.52
2019-03-23T09:21:12.936Z,83.85
2019-03-23T09:22:12.011Z,84.13
2019-03-23T09:23:11.990Z,83.85
2019-03-23T09:24:11.968Z,83.65
2019-03-23T09:25:11.939Z,83.28
2019-03-23T09:26:13.612Z,82.93
2019-03-23T09:27:12.674Z,82.84
2019-03-23T09:28:11.875Z,82.56
2019-03-23T09:29:11.847Z,82.75
2019-03-23T09:30:11.824Z,82.65
2019-03-23T09:31:11.866Z,81.79
2019-03-23T09:32:11.780Z,81.98
2019-03-23T09:33:11.754Z,81.6
2019-03-23T09:34:11.732Z,81.98
2019-03-23T09:35:11.705Z,81.98
2019-03-23T09:36:11.685Z,81.76
2019-03-23T09:37:11.670Z,81.28
2019-03-23T09:38:11.638Z,82.14
2019-03-23T09:39:11.609Z,81.66
2019-03-23T09:40:13.704Z,81.56
2019-03-23T09:41:11.562Z,81.37
2019-03-23T09:42:11.543Z,81.47
2019-03-23T09:43:11.519Z,81.66
2019-03-23T09:44:11.493Z,81.95
2019-03-23T09:45:11.472Z,81.85
2019-03-23T09:46:11.464Z,81.47
2019-03-23T09:47:11.424Z,81.56
2019-03-23T09:48:11.397Z,81.47
2019-03-23T09:49:11.386Z,81.28
2019-03-23T09:50:11.350Z,81.23
2019-03-23T09:51:11.329Z,81.18
2019-03-23T09:52:11.303Z,80.99
2019-03-23T09:53:11.280Z,81.18
2019-03-23T09:54:11.260Z,81.37
2019-03-23T09:55:11.234Z,81.18
2019-03-23T09:56:11.231Z,81.18
2019-03-23T09:57:11.187Z,80.99
2019-03-23T09:58:11.166Z,81.28
2019-03-23T09:59:11.143Z,81.37
2019-03-23T10:00:11.120Z,81.28
2019-03-23T10:01:11.093Z,81.47
2019-03-23T10:02:11.072Z,81.28
2019-03-23T10:03:11.044Z,81.76
2019-03-23T10:04:11.199Z,81.18
2019-03-23T10:05:11.106Z,80.99
2019-03-23T10:06:10.977Z,80.9
2019-03-23T10:07:10.951Z,80.9
2019-03-23T10:08:12.131Z,81.09
2019-03-23T10:09:10.902Z,81.09
2019-03-23T10:10:20.881Z,80.42
2019-03-23T10:11:10.853Z,80.42
2019-03-23T10:12:10.853Z,80.71
2019-03-23T10:13:10.853Z,80.75
2019-03-23T10:14:10.790Z,80.52
2019-03-23T10:15:10.764Z,80.65
2019-03-23T10:16:10.739Z,79.8
2019-03-23T10:17:10.714Z,79.51
2019-03-23T10:18:10.690Z,79.51
2019-03-23T10:19:10.666Z,79.85
2019-03-23T10:20:10.645Z,79.32
2019-03-23T10:21:10.620Z,79.47
2019-03-23T10:22:10.593Z,80.13
2019-03-23T10:23:10.579Z,80.04
2019-03-23T10:24:10.549Z,80.13
2019-03-23T10:25:10.527Z,80.23
2019-03-23T10:26:10.566Z,80.13
2019-03-23T10:27:10.494Z,80.23
2019-03-23T10:28:10.454Z,79.75
2019-03-23T10:29:10.431Z,79.75
2019-03-23T10:30:10.404Z,79.28
2019-03-23T10:31:10.387Z,79.94
2019-03-23T10:32:10.362Z,79.7
2019-03-23T10:33:10.336Z,78.85
2019-03-23T10:34:10.313Z,78.75
2019-03-23T10:35:10.291Z,78.94
2019-03-23T10:36:12.186Z,78.65
2019-03-23T10:37:10.244Z,78.27
2019-03-23T10:38:10.220Z,77.98
2019-03-23T10:39:10.195Z,77.89
2019-03-23T10:40:10.174Z,77.89
2019-03-23T10:41:10.151Z,77.22
2019-03-23T10:42:10.136Z,77.42
2019-03-23T10:43:10.104Z,76.69
2019-03-23T10:44:10.082Z,76.84
2019-03-23T10:45:10.061Z,76.88
2019-03-23T10:46:10.038Z,76.69
2019-03-23T10:47:10.016Z,76.88
2019-03-23T10:48:11.937Z,76.31
2019-03-23T10:49:09.966Z,76.4
2019-03-23T10:50:09.944Z,76.21
2019-03-23T10:51:09.921Z,76.31
2019-03-23T10:52:09.908Z,76.06
2019-03-23T10:53:09.881Z,74.82
2019-03-23T10:54:09.859Z,74.06
2019-03-23T10:55:09.834Z,73.96
2019-03-23T10:56:09.815Z,73.33
2019-03-23T10:57:09.793Z,73.33
2019-03-23T10:58:09.873Z,72.19
2019-03-23T10:59:09.521Z,71.81
2019-03-23T11:00:09.731Z,71.81
2019-03-23T11:01:09.709Z,71.18
2019-03-23T11:02:09.685Z,71.46
2019-03-23T11:03:09.671Z,70.98
2019-03-23T11:04:09.643Z,70.98
2019-03-23T11:05:09.629Z,70.79
2019-03-23T11:06:09.603Z,70.61
2019-03-23T11:07:09.604Z,70.51
2019-03-23T11:08:09.566Z,70.32
2019-03-23T11:09:09.556Z,69.74
2019-03-23T11:10:09.528Z,69.46
2019-03-23T11:11:09.513Z,69.11
2019-03-23T11:12:09.485Z,68.98
2019-03-23T11:13:09.464Z,69.49
2019-03-23T11:14:09.445Z,68.51
2019-03-23T11:15:09.433Z,68.7
2019-03-23T11:16:09.418Z,68.35
2019-03-23T11:17:09.392Z,68.54
2019-03-23T11:18:09.370Z,67.93
2019-03-23T11:19:15.852Z,68.12
2019-03-23T11:20:09.433Z,68.12
2019-03-23T11:21:09.320Z,68.22
2019-03-23T11:22:09.301Z,68.22
2019-03-23T11:23:09.274Z,68.03
2019-03-23T11:24:09.017Z,68.03
2019-03-23T11:25:09.237Z,68.03
2019-03-23T11:26:09.216Z,68.32
2019-03-23T11:27:09.202Z,68.51
2019-03-23T11:28:09.180Z,68.32
2019-03-23T11:29:10.926Z,68.03
2019-03-23T11:30:09.142Z,68.41
2019-03-23T11:31:09.121Z,67.58
2019-03-23T11:32:09.102Z,67.4
2019-03-23T11:33:09.095Z,67.21
2019-03-23T11:34:17.496Z,67.11
2019-03-23T11:35:10.618Z,66.53
2019-03-23T11:36:09.028Z,66.28
2019-03-23T11:37:09.223Z,66.19
2019-03-23T11:38:09.145Z,65.52
2019-03-23T11:39:08.978Z,65.74
2019-03-23T11:40:08.955Z,65.17
2019-03-23T11:41:08.936Z,64.12
2019-03-23T11:42:08.929Z,63.93
2019-03-23T11:43:08.902Z,63.64
2019-03-23T11:44:08.648Z,64.02
2019-03-23T11:45:08.868Z,64.31
2019-03-23T11:46:08.929Z,63.8
2019-03-23T11:47:08.829Z,64.47
2019-03-23T11:48:08.815Z,64.47
2019-03-23T11:49:08.793Z,64.56
2019-03-23T11:50:08.780Z,64.65
2019-03-23T11:51:08.765Z,64.09
2019-03-23T11:52:08.743Z,63.89
2019-03-23T11:53:08.728Z,64.85
2019-03-23T11:54:08.707Z,64.85
2019-03-23T11:55:08.692Z,64.72
2019-03-23T11:56:08.669Z,64.85
2019-03-23T11:57:08.651Z,65.58
2019-03-23T11:58:08.636Z,64.75
2019-03-23T11:59:08.621Z,64.65
2019-03-23T12:00:08.604Z,64.75
2019-03-23T12:01:08.585Z,64.65
2019-03-23T12:02:08.562Z,64.65
2019-03-23T12:03:08.543Z,64.65
2019-03-23T12:04:08.526Z,64.75
2019-03-23T12:05:08.517Z,64.94
2019-03-23T12:06:08.498Z,65.33
2019-03-23T12:07:08.472Z,64.94
2019-03-23T12:08:08.453Z,65.04
2019-03-23T12:09:08.432Z,65.14
2019-03-23T12:10:08.413Z,65.71
2019-03-23T12:11:08.394Z,65.71
2019-03-23T12:12:08.382Z,66
2019-03-23T12:13:08.362Z,64.85
2019-03-23T12:14:08.340Z,64.37
2019-03-23T12:15:08.322Z,64.56
2019-03-23T12:16:08.306Z,65.04
2019-03-23T12:17:08.704Z,64.65
2019-03-23T12:18:08.263Z,64.09
2019-03-23T12:19:08.243Z,64.12
2019-03-23T12:20:08.230Z,63.83
2019-03-23T12:21:08.214Z,63.93
2019-03-23T12:22:08.186Z,63.45
2019-03-23T12:23:08.171Z,63.54
2019-03-23T12:24:08.165Z,63.26
2019-03-23T12:25:08.136Z,63.35
2019-03-23T12:26:08.112Z,63.35
2019-03-23T12:27:07.860Z,63.35
2019-03-23T12:28:07.837Z,63.45
2019-03-23T12:29:08.058Z,63.35
2019-03-23T12:30:10.005Z,63.35
2019-03-23T12:31:08.021Z,63.54
2019-03-23T12:32:08.006Z,62.68
2019-03-23T12:33:07.982Z,62.49
2019-03-23T12:34:07.967Z,62.78
2019-03-23T12:35:07.974Z,62.33
2019-03-23T12:36:07.937Z,62.71
2019-03-23T12:37:07.911Z,62.33
2019-03-23T12:38:07.896Z,62.52
2019-03-23T12:39:07.879Z,62.62
2019-03-23T12:40:07.858Z,62.43
2019-03-23T12:41:22.931Z,61.66
2019-03-23T12:42:07.824Z,61.66
2019-03-23T12:43:07.807Z,61.54
2019-03-23T12:44:07.788Z,61.92
2019-03-23T12:45:07.769Z,62.3
2019-03-23T12:46:07.754Z,62.49
2019-03-23T12:47:07.736Z,62.49
2019-03-23T12:48:07.719Z,62.49
2019-03-23T12:49:08.899Z,62.3
2019-03-23T12:50:07.685Z,62.04
2019-03-23T12:51:07.663Z,61.76
2019-03-23T12:52:07.643Z,61.66
2019-03-23T12:53:07.632Z,61.76
2019-03-23T12:54:07.608Z,61.47
2019-03-23T12:55:07.596Z,61.95